createdAt,value
2023-05-03T00:02:57.696Z,9.26
2023-05-03T00:06:44.836Z,9.26
2023-05-03T00:10:28.574Z,9.24
2023-05-03T00:14:12.665Z,9.10
2023-05-03T00:17:55.772Z,9.02
2023-05-03T00:21:38.578Z,9.02
2023-05-03T00:25:21.219Z,9.02
2023-05-03T00:29:04.039Z,8.93
2023-05-03T00:32:48.416Z,8.84
2023-05-03T00:36:31.181Z,8.75
2023-05-03T00:40:18.470Z,8.64
2023-05-03T00:44:01.185Z,8.46
2023-05-03T00:47:44.367Z,8.36
2023-05-03T00:51:28.790Z,8.25
2023-05-03T00:55:11.595Z,8.20
2023-05-03T00:58:54.661Z,8.08
2023-05-03T01:02:37.442Z,7.91
2023-05-03T01:06:27.611Z,7.83
2023-05-03T01:10:20.826Z,7.86
2023-05-03T01:14:07.791Z,7.77
2023-05-03T01:17:52.799Z,7.79
2023-05-03T01:21:35.597Z,7.86
2023-05-03T01:25:19.845Z,7.92
2023-05-03T01:29:02.692Z,7.98
2023-05-03T01:33:06.745Z,8.03
2023-05-03T01:36:50.745Z,8.06
2023-05-03T01:40:40.099Z,8.08
2023-05-03T01:44:26.785Z,8.12
2023-05-03T01:48:15.566Z,8.16
2023-05-03T01:51:58.265Z,8.16
2023-05-03T01:55:42.278Z,8.18
2023-05-03T01:59:25.006Z,8.17
2023-05-03T02:03:07.758Z,8.16
2023-05-03T02:06:50.675Z,8.11
2023-05-03T02:10:33.595Z,8.14
2023-05-03T02:14:17.668Z,8.11
2023-05-03T02:18:02.684Z,8.14
2023-05-03T02:21:45.605Z,8.16
2023-05-03T02:25:28.418Z,8.16
2023-05-03T02:29:11.072Z,8.17
2023-05-03T02:32:55.407Z,8.18
2023-05-03T02:36:39.324Z,8.28
2023-05-03T02:40:21.993Z,8.37
2023-05-03T02:44:05.099Z,8.45
2023-05-03T02:47:47.806Z,8.51
2023-05-03T02:51:32.498Z,8.47
2023-05-03T02:55:15.251Z,8.44
2023-05-03T02:58:57.927Z,8.36
2023-05-03T03:02:40.771Z,8.35
2023-05-03T03:06:23.789Z,8.39
2023-05-03T03:10:09.622Z,8.37
2023-05-03T03:13:52.743Z,8.31
2023-05-03T03:17:39.154Z,8.16
2023-05-03T03:21:22.187Z,8.06
2023-05-03T03:25:05.646Z,8.05
2023-05-03T03:28:49.699Z,8.01
2023-05-03T03:32:32.692Z,8.08
2023-05-03T03:36:15.407Z,8.09
2023-05-03T03:39:58.279Z,8.21
2023-05-03T03:43:41.240Z,8.32
2023-05-03T03:47:25.856Z,8.31
2023-05-03T03:51:08.666Z,8.31
2023-05-03T03:54:51.385Z,8.32
2023-05-03T03:58:34.090Z,8.30
2023-05-03T04:02:16.834Z,8.34
2023-05-03T04:06:01.044Z,8.33
2023-05-03T04:09:44.356Z,8.31
2023-05-03T04:13:27.021Z,8.31
2023-05-03T04:17:09.765Z,8.34
2023-05-03T04:20:53.795Z,8.33
2023-05-03T04:24:39.700Z,8.29
2023-05-03T04:28:22.641Z,8.31
2023-05-03T04:32:06.752Z,8.32
2023-05-03T04:35:52.662Z,8.21
2023-05-03T04:39:36.750Z,8.08
2023-05-03T04:43:19.492Z,7.94
2023-05-03T04:47:02.744Z,7.93
2023-05-03T04:50:46.129Z,7.96
2023-05-03T04:54:29.032Z,8.05
2023-05-03T04:58:13.052Z,8.12
2023-05-03T05:01:56.041Z,8.27
2023-05-03T05:05:38.769Z,8.37
2023-05-03T05:09:22.614Z,8.34
2023-05-03T05:13:05.468Z,8.16
2023-05-03T05:16:49.670Z,8.20
2023-05-03T05:20:32.468Z,8.15
2023-05-03T05:24:15.220Z,8.24
2023-05-03T05:27:57.943Z,8.38
2023-05-03T05:31:41.138Z,8.23
2023-05-03T05:35:25.362Z,8.10
2023-05-03T05:39:08.177Z,8.13
2023-05-03T05:42:50.995Z,8.25
2023-05-03T05:46:33.715Z,8.19
2023-05-03T05:50:18.652Z,8.23
2023-05-03T05:54:03.457Z,8.29
2023-05-03T05:57:46.182Z,8.38
2023-05-03T06:01:28.899Z,8.52
2023-05-03T06:05:11.929Z,8.69
2023-05-03T06:08:54.671Z,8.85
2023-05-03T06:12:38.714Z,8.94
2023-05-03T06:16:22.105Z,9.04
2023-05-03T06:20:05.902Z,8.99
2023-05-03T06:23:48.990Z,8.95
2023-05-03T06:27:31.702Z,9.09
2023-05-03T06:31:16.198Z,9.00
2023-05-03T06:34:59.704Z,8.93
2023-05-03T06:38:42.635Z,8.86
2023-05-03T06:42:25.340Z,8.87
2023-05-03T06:46:08.075Z,9.16
2023-05-03T06:49:54.612Z,9.44
2023-05-03T06:53:37.313Z,9.43
2023-05-03T06:57:19.984Z,9.52
2023-05-03T07:01:03.425Z,9.65
2023-05-03T07:04:46.175Z,9.79
2023-05-03T07:08:30.676Z,9.87
2023-05-03T07:12:13.333Z,9.86
2023-05-03T07:15:56.091Z,9.87
2023-05-03T07:19:39.905Z,9.90
2023-05-03T07:23:22.862Z,9.77
2023-05-03T07:27:07.790Z,9.77
2023-05-03T07:30:50.657Z,9.82
2023-05-03T07:34:33.800Z,9.90
2023-05-03T07:38:16.781Z,9.98
2023-05-03T07:41:59.509Z,10.01
2023-05-03T07:45:43.931Z,10.02
2023-05-03T07:49:26.625Z,10.11
2023-05-03T07:53:09.343Z,10.19
2023-05-03T07:56:53.314Z,10.24
2023-05-03T08:00:37.742Z,10.31
2023-05-03T08:04:21.965Z,10.40
2023-05-03T08:08:05.643Z,10.47
2023-05-03T08:11:48.363Z,10.64
2023-05-03T08:15:31.104Z,10.82
2023-05-03T08:19:13.929Z,10.96
2023-05-03T08:22:57.980Z,11.07
2023-05-03T08:26:41.241Z,11.16
2023-05-03T08:30:23.978Z,11.33
2023-05-03T08:34:07.885Z,11.40
2023-05-03T08:37:50.614Z,11.51
2023-05-03T08:41:35.150Z,11.61
2023-05-03T08:45:18.802Z,11.78
2023-05-03T08:49:02.032Z,11.81
2023-05-03T08:52:45.513Z,11.94
2023-05-03T08:56:31.131Z,12.12
2023-05-03T09:00:16.033Z,12.22
2023-05-03T09:03:58.866Z,12.26
2023-05-03T09:07:41.713Z,12.33
2023-05-03T09:11:26.598Z,12.45
2023-05-03T09:15:10.041Z,12.60
2023-05-03T09:19:01.939Z,12.77
2023-05-03T09:22:52.312Z,12.95
2023-05-03T09:26:37.457Z,13.07
2023-05-03T09:30:21.047Z,13.18
2023-05-03T09:34:22.261Z,13.32
2023-05-03T09:38:05.502Z,13.45
2023-05-03T09:41:48.588Z,13.54
2023-05-03T09:45:31.509Z,13.66
2023-05-03T09:49:18.105Z,13.67
2023-05-03T09:53:03.397Z,13.60
2023-05-03T09:56:47.249Z,13.53
2023-05-03T10:00:30.717Z,13.45
2023-05-03T10:04:15.214Z,13.44
2023-05-03T10:08:00.146Z,13.34
2023-05-03T10:11:44.771Z,13.24
2023-05-03T10:15:28.723Z,13.19
2023-05-03T10:19:17.156Z,13.16
2023-05-03T10:23:12.623Z,13.12
2023-05-03T10:26:57.420Z,13.15
2023-05-03T10:30:41.059Z,13.32
2023-05-03T10:34:26.273Z,13.43
2023-05-03T10:38:16.733Z,13.36
2023-05-03T10:42:01.313Z,13.51
2023-05-03T10:45:45.412Z,13.54
2023-05-03T10:49:30.374Z,13.65
2023-05-03T10:53:39.954Z,13.72
2023-05-03T10:57:27.544Z,13.82
2023-05-03T11:01:11.476Z,13.97
2023-05-03T11:04:57.464Z,13.93
2023-05-03T11:08:40.264Z,14.05
2023-05-03T11:12:23.002Z,14.04
2023-05-03T11:16:06.840Z,14.02
2023-05-03T11:19:49.607Z,14.22
2023-05-03T11:23:33.715Z,14.47
2023-05-03T11:27:16.449Z,14.80
2023-05-03T11:31:02.426Z,14.87
2023-05-03T11:34:45.416Z,15.08
2023-05-03T11:38:28.398Z,15.18
2023-05-03T11:42:12.575Z,15.17
2023-05-03T11:45:57.906Z,15.28
2023-05-03T11:49:40.856Z,15.40
2023-05-03T11:53:24.762Z,15.33
2023-05-03T11:57:14.315Z,15.40
2023-05-03T12:00:58.547Z,15.34
2023-05-03T12:04:43.262Z,15.52
2023-05-03T12:08:30.210Z,15.56
2023-05-03T12:12:25.556Z,15.59
2023-05-03T12:16:14.273Z,15.73
2023-05-03T12:24:03.826Z,16.00
2023-05-03T12:28:01.964Z,16.21
2023-05-03T12:31:52.917Z,16.30
2023-05-03T12:35:38.320Z,16.65
2023-05-03T12:39:27.137Z,17.03
2023-05-03T12:43:11.755Z,17.17
2023-05-03T12:46:54.737Z,17.25
2023-05-03T12:50:39.068Z,17.17
2023-05-03T12:58:36.893Z,17.20
2023-05-03T13:05:57.246Z,17.25
2023-05-03T13:13:42.887Z,17.50
2023-05-03T13:17:30.364Z,17.68
2023-05-03T13:21:13.159Z,17.95
2023-05-03T13:24:56.213Z,18.26
2023-05-03T13:28:41.038Z,18.39
2023-05-03T13:32:24.380Z,18.57
2023-05-03T13:36:09.999Z,19.14
2023-05-03T13:39:53.166Z,19.40
2023-05-03T13:43:36.114Z,19.30
2023-05-03T13:47:19.103Z,19.33
2023-05-03T13:51:03.097Z,19.28
2023-05-03T13:54:47.220Z,19.12
2023-05-03T13:58:30.212Z,19.19
2023-05-03T14:02:13.024Z,19.17
2023-05-03T14:05:56.198Z,19.06
2023-05-03T14:09:52.005Z,18.90
2023-05-03T14:13:47.668Z,18.77
2023-05-03T14:17:37.644Z,18.70
2023-05-03T14:21:20.603Z,18.50
2023-05-03T14:25:05.382Z,18.46
2023-05-03T14:28:48.031Z,18.51
2023-05-03T14:32:30.791Z,18.80
2023-05-03T14:36:13.560Z,19.30
2023-05-03T14:39:56.259Z,20.07
2023-05-03T14:43:40.411Z,20.91
2023-05-03T14:47:23.055Z,21.61
2023-05-03T14:51:06.402Z,22.21
2023-05-03T14:54:49.099Z,22.78
2023-05-03T14:58:32.968Z,23.49
2023-05-03T15:02:17.003Z,24.24
2023-05-03T15:06:00.302Z,25.05
2023-05-03T15:09:44.753Z,25.24
2023-05-03T15:13:27.640Z,25.40
2023-05-03T15:17:10.715Z,24.63
2023-05-03T15:20:54.755Z,23.97
2023-05-03T15:24:37.402Z,23.54
2023-05-03T15:28:20.112Z,23.56
2023-05-03T15:32:02.844Z,23.10
2023-05-03T15:35:48.332Z,23.38
2023-05-03T15:39:32.775Z,23.89
2023-05-03T15:43:15.456Z,23.65
2023-05-03T15:46:58.102Z,23.67
2023-05-03T15:50:41.092Z,24.90
2023-05-03T15:54:23.739Z,25.94
2023-05-03T15:58:09.242Z,26.89
2023-05-03T16:01:52.333Z,27.71
2023-05-03T16:05:36.260Z,28.32
2023-05-03T16:09:19.522Z,28.83
2023-05-03T16:13:02.259Z,29.06
2023-05-03T16:16:47.794Z,29.28
2023-05-03T16:20:31.313Z,29.35
2023-05-03T16:24:17.027Z,29.24
2023-05-03T16:27:59.762Z,28.94
2023-05-03T16:31:43.311Z,28.42
2023-05-03T16:35:27.472Z,27.92
2023-05-03T16:39:11.354Z,27.49
2023-05-03T16:42:55.702Z,26.91
2023-05-03T16:46:39.650Z,26.37
2023-05-03T16:50:22.375Z,26.00
2023-05-03T16:54:06.577Z,25.63
2023-05-03T16:57:49.322Z,25.20
2023-05-03T17:01:31.993Z,24.77
2023-05-03T17:05:14.829Z,24.28
2023-05-03T17:08:57.592Z,23.87
2023-05-03T17:12:41.619Z,23.60
2023-05-03T17:16:24.872Z,23.14
2023-05-03T17:20:09.345Z,22.66
2023-05-03T17:23:52.189Z,22.25
2023-05-03T17:27:34.827Z,21.82
2023-05-03T17:31:18.886Z,21.35
2023-05-03T17:35:01.696Z,20.93
2023-05-03T17:38:44.398Z,20.56
2023-05-03T17:42:27.147Z,20.16
2023-05-03T17:46:11.310Z,19.83
2023-05-03T17:49:58.511Z,19.51
2023-05-03T17:53:41.612Z,19.21
2023-05-03T17:57:24.253Z,18.91
2023-05-03T18:01:08.020Z,18.57
2023-05-03T18:04:50.739Z,18.24
2023-05-03T18:08:36.357Z,18.03
2023-05-03T18:12:19.214Z,17.62
2023-05-03T18:16:01.992Z,17.27
2023-05-03T18:19:45.252Z,17.15
2023-05-03T18:23:27.964Z,17.11
2023-05-03T18:27:12.570Z,17.01
2023-05-03T18:30:56.331Z,16.91
2023-05-03T18:34:39.023Z,16.76
2023-05-03T18:38:21.977Z,16.63
2023-05-03T18:42:05.219Z,16.42
2023-05-03T18:45:49.244Z,16.30
2023-05-03T18:49:32.551Z,16.18
2023-05-03T18:53:15.814Z,16.09
2023-05-03T18:57:01.713Z,15.90
2023-05-03T19:00:44.755Z,15.78
2023-05-03T19:04:30.908Z,15.69
2023-05-03T19:08:17.473Z,15.60
2023-05-03T19:12:00.740Z,15.54
2023-05-03T19:15:44.249Z,15.48
2023-05-03T19:19:29.255Z,15.39
2023-05-03T19:23:12.242Z,15.35
2023-05-03T19:26:54.987Z,15.27
2023-05-03T19:30:41.153Z,15.16
2023-05-03T19:34:23.891Z,15.07
2023-05-03T19:38:08.667Z,14.97
2023-05-03T19:41:53.035Z,14.92
2023-05-03T19:45:35.685Z,14.85
2023-05-03T19:49:18.355Z,14.81
2023-05-03T19:53:01.229Z,14.72
2023-05-03T19:56:45.263Z,14.65
2023-05-03T20:00:28.468Z,14.61
2023-05-03T20:04:11.761Z,14.53
2023-05-03T20:07:54.477Z,14.47
2023-05-03T20:11:37.181Z,14.46
2023-05-03T20:15:21.977Z,14.09
2023-05-03T20:19:04.659Z,13.68
2023-05-03T20:22:48.849Z,13.61
2023-05-03T20:26:31.662Z,13.66
2023-05-03T20:30:14.865Z,13.68
2023-05-03T20:33:58.890Z,13.70
2023-05-03T20:37:41.651Z,13.70
2023-05-03T20:41:24.742Z,13.69
2023-05-03T20:45:08.350Z,13.64
2023-05-03T20:48:51.058Z,13.57
2023-05-03T20:52:39.665Z,13.50
2023-05-03T20:56:25.523Z,13.47
2023-05-03T21:00:11.486Z,13.45
2023-05-03T21:03:55.263Z,13.39
2023-05-03T21:07:39.475Z,13.34
2023-05-03T21:11:22.693Z,13.26
2023-05-03T21:15:06.852Z,13.18
2023-05-03T21:18:49.562Z,13.14
2023-05-03T21:22:32.289Z,13.08
2023-05-03T21:26:16.712Z,13.02
2023-05-03T21:29:59.352Z,12.93
2023-05-03T21:33:43.285Z,12.88
2023-05-03T21:37:26.371Z,12.84
2023-05-03T21:41:09.259Z,12.78
2023-05-03T21:44:55.961Z,12.76
2023-05-03T21:48:40.262Z,12.70
2023-05-03T21:52:23.364Z,12.58
2023-05-03T21:56:06.885Z,12.51
2023-05-03T21:59:50.372Z,12.46
2023-05-03T22:03:34.716Z,12.43
2023-05-03T22:07:17.454Z,12.41
2023-05-03T22:11:00.125Z,12.36
2023-05-03T22:14:42.889Z,12.27
2023-05-03T22:18:28.051Z,12.25
2023-05-03T22:22:12.164Z,12.24
2023-05-03T22:25:54.892Z,12.22
2023-05-03T22:29:37.926Z,12.18
2023-05-03T22:33:23.868Z,12.14
2023-05-03T22:37:06.976Z,12.07
2023-05-03T22:40:51.591Z,12.04
2023-05-03T22:44:34.605Z,12.00
2023-05-03T22:48:17.654Z,11.97
2023-05-03T22:52:00.592Z,11.94
2023-05-03T22:55:43.307Z,11.89
2023-05-03T22:59:27.358Z,11.83
2023-05-03T23:03:10.852Z,11.81
2023-05-03T23:06:54.511Z,11.74
2023-05-03T23:10:37.262Z,11.69
2023-05-03T23:14:19.958Z,11.64
2023-05-03T23:18:04.108Z,11.56
2023-05-03T23:21:46.779Z,11.50
2023-05-03T23:25:29.644Z,11.45
2023-05-03T23:29:12.660Z,11.41
2023-05-03T23:32:55.484Z,11.32
2023-05-03T23:36:40.006Z,11.25
2023-05-03T23:40:22.730Z,11.19
2023-05-03T23:44:05.830Z,11.19
2023-05-03T23:47:48.605Z,11.15
2023-05-03T23:51:31.310Z,11.08
2023-05-03T23:55:15.346Z,11.04
2023-05-03T23:58:58.005Z,10.98
